Time;durP1;ratioP1;P1;durP2;ratioP2;P2;SDS_P1;SDS_P2;PMS_P1;PMS_P2;Temp;Humidity;BMP_temperature;BMP_pressure;BME280_temperature;BME280_humidity;BME280_pressure;Samples;Min_cycle;Max_cycle;Signal;HPM_P1;HPM_P2
2022/08/01 00:02:00;;;;;;;6.67;6.07;;;19.00;99.90;;;;;;5103552;28;20467;-65
2022/08/01 00:04:27;;;;;;;5.83;5.30;;;19.00;99.90;;;;;;5086485;28;20546;-65
2022/08/01 00:06:54;;;;;;;6.60;6.00;;;19.00;99.90;;;;;;5092151;28;20474;-65
2022/08/01 00:09:21;;;;;;;7.70;6.43;;;19.00;99.90;;;;;;5084350;28;20487;-65
2022/08/01 00:11:50;;;;;;;6.00;5.40;;;19.10;99.90;;;;;;5093375;28;20549;-64
2022/08/01 00:14:17;;;;;;;8.77;6.23;;;19.10;99.90;;;;;;5075737;28;20493;-65
2022/08/01 00:16:44;;;;;;;8.00;6.50;;;19.00;99.90;;;;;;5089089;28;20534;-64
2022/08/01 00:19:12;;;;;;;9.30;7.53;;;19.00;99.90;;;;;;5081143;28;20887;-64
2022/08/01 00:21:39;;;;;;;7.90;6.37;;;18.90;99.90;;;;;;5080628;28;20470;-64
2022/08/01 00:24:06;;;;;;;7.13;6.40;;;18.90;99.90;;;;;;5090620;28;20474;-65
2022/08/01 00:26:34;;;;;;;6.90;6.20;;;18.90;99.90;;;;;;5096759;28;20445;-64
2022/08/01 00:29:02;;;;;;;13.57;7.33;;;18.90;99.90;;;;;;5083062;28;20853;-65
2022/08/01 00:31:29;;;;;;;8.07;7.37;;;18.90;99.90;;;;;;5077375;28;20516;-64
2022/08/01 00:33:57;;;;;;;8.63;7.73;;;18.90;99.90;;;;;;5091234;28;20446;-64
2022/08/01 00:36:24;;;;;;;7.80;7.00;;;18.90;99.90;;;;;;5080237;28;20933;-64
2022/08/01 00:38:51;;;;;;;8.70;7.80;;;18.80;99.90;;;;;;5085435;28;20451;-64
2022/08/01 00:41:18;;;;;;;7.67;6.87;;;18.80;99.90;;;;;;5085318;28;20497;-64
2022/08/01 00:43:45;;;;;;;8.20;7.07;;;18.80;99.90;;;;;;5098874;28;20529;-64
2022/08/01 00:46:14;;;;;;;9.37;7.60;;;18.80;99.90;;;;;;5085906;28;20954;-64
2022/08/01 00:48:42;;;;;;;8.07;7.00;;;18.80;99.90;;;;;;5090388;28;20461;-64
2022/08/01 00:51:09;;;;;;;7.10;6.03;;;18.80;99.90;;;;;;5088247;28;20467;-64
2022/08/01 00:53:36;;;;;;;8.10;7.20;;;18.80;99.90;;;;;;5094842;28;20446;-65
2022/08/01 00:56:04;;;;;;;8.73;6.30;;;18.80;99.90;;;;;;5107147;28;21004;-64
2022/08/01 00:58:32;;;;;;;10.63;6.20;;;18.80;99.90;;;;;;5103007;28;20821;-65
2022/08/01 01:00:59;;;;;;;6.80;6.17;;;18.80;99.90;;;;;;5090083;28;20466;-64
2022/08/01 01:03:28;;;;;;;7.73;6.93;;;18.80;99.90;;;;;;5101040;28;20449;-65
2022/08/01 01:06:08;;;;;;;7.93;7.20;;;18.80;99.90;;;;;;5111827;28;20922;-65
2022/08/01 01:08:42;;;;;;;8.97;7.33;;;18.80;99.90;;;;;;5097386;28;20462;-65
2022/08/01 01:11:14;;;;;;;8.33;6.50;;;18.70;99.90;;;;;;5085235;28;21009;-64
2022/08/01 01:13:47;;;;;;;7.70;6.60;;;18.80;99.90;;;;;;5091021;28;20442;-65
2022/08/01 01:16:18;;;;;;;6.87;6.17;;;18.80;99.90;;;;;;5084402;28;20474;-64
2022/08/01 01:18:50;;;;;;;11.03;6.90;;;18.80;99.90;;;;;;5085747;28;20521;-64
2022/08/01 01:21:52;;;;;;;9.63;6.33;;;18.80;99.90;;;;;;5096812;28;20499;-64
2022/08/01 01:24:29;;;;;;;7.73;6.73;;;18.80;99.90;;;;;;5081682;28;20442;-65
2022/08/01 01:27:07;;;;;;;6.27;5.67;;;18.80;99.90;;;;;;5091876;28;20517;-65
2022/08/01 01:29:42;;;;;;;9.50;7.33;;;18.80;99.90;;;;;;5094942;28;20466;-64
2022/08/01 01:32:17;;;;;;;7.43;6.00;;;18.80;99.90;;;;;;5085158;28;20467;-64
2022/08/01 01:34:47;;;;;;;8.83;5.90;;;18.80;99.90;;;;;;5092727;28;20548;-65
2022/08/01 01:37:18;;;;;;;8.07;6.63;;;18.80;99.90;;;;;;5075372;28;20451;-63
2022/08/01 01:39:49;;;;;;;7.80;6.20;;;18.80;99.90;;;;;;5096741;28;20853;-65
2022/08/01 01:42:18;;;;;;;6.50;5.90;;;18.90;99.90;;;;;;5084060;28;20463;-64
2022/08/01 01:44:49;;;;;;;10.90;5.80;;;18.80;99.90;;;;;;5085842;28;20530;-64
2022/08/01 01:47:18;;;;;;;5.57;4.97;;;18.80;99.90;;;;;;5099213;28;20434;-65
2022/08/01 01:49:47;;;;;;;7.40;6.70;;;18.80;99.90;;;;;;5080333;28;20504;-66
2022/08/01 01:52:17;;;;;;;7.93;6.30;;;18.90;99.90;;;;;;5094822;28;20467;-65
2022/08/01 01:54:49;;;;;;;7.37;6.67;;;18.80;99.90;;;;;;5099786;28;20470;-65
2022/08/01 01:57:19;;;;;;;9.77;6.73;;;18.80;99.90;;;;;;5085940;28;20519;-65
2022/08/01 01:59:48;;;;;;;8.77;5.90;;;18.80;99.90;;;;;;5089102;28;20533;-64
2022/08/01 02:02:17;;;;;;;7.30;6.43;;;18.70;99.90;;;;;;5064425;28;20536;-66
2022/08/01 02:04:47;;;;;;;8.30;6.00;;;18.60;99.90;;;;;;5089534;28;20479;-67
2022/08/01 02:07:18;;;;;;;7.30;6.00;;;18.60;99.90;;;;;;5078524;28;20439;-66
2022/08/01 02:09:48;;;;;;;7.33;6.70;;;18.50;99.90;;;;;;5093686;28;21017;-66
2022/08/01 02:12:17;;;;;;;9.20;7.00;;;18.50;99.90;;;;;;5087018;28;20486;-66
2022/08/01 02:14:45;;;;;;;7.63;6.90;;;18.50;99.90;;;;;;5089406;28;20442;-66
2022/08/01 02:17:19;;;;;;;12.93;7.50;;;18.50;99.90;;;;;;5091662;28;20482;-67
2022/08/01 02:19:47;;;;;;;7.33;6.63;;;18.40;99.90;;;;;;5098672;28;20496;-68
2022/08/01 02:22:21;;;;;;;10.43;6.73;;;18.40;99.90;;;;;;5100255;28;20494;-67
2022/08/01 02:24:55;;;;;;;6.93;6.20;;;18.40;99.90;;;;;;5088346;28;20439;-67
2022/08/01 02:27:26;;;;;;;7.47;6.00;;;18.40;99.90;;;;;;5087151;28;20452;-67
2022/08/01 02:29:58;;;;;;;10.50;6.70;;;18.30;99.90;;;;;;5094345;28;20546;-66
2022/08/01 02:32:35;;;;;;;8.33;6.30;;;18.30;99.90;;;;;;5086614;28;20504;-67
2022/08/01 02:35:03;;;;;;;8.97;6.17;;;18.30;99.90;;;;;;5081361;28;20472;-66
2022/08/01 02:37:34;;;;;;;6.70;6.10;;;18.30;99.90;;;;;;5094305;28;20446;-67
2022/08/01 02:40:02;;;;;;;8.70;7.20;;;18.30;99.90;;;;;;5083002;28;20530;-66
2022/08/01 02:42:32;;;;;;;7.40;6.70;;;18.30;99.90;;;;;;5087679;28;20490;-66
2022/08/01 02:45:01;;;;;;;8.27;6.23;;;18.20;99.90;;;;;;5078629;28;20446;-66
2022/08/01 02:47:31;;;;;;;8.83;7.87;;;18.30;99.90;;;;;;5090464;28;20876;-66
2022/08/01 02:50:01;;;;;;;6.77;6.07;;;18.30;99.90;;;;;;5079298;28;20527;-66
2022/08/01 02:52:29;;;;;;;10.20;7.00;;;18.20;99.90;;;;;;5077177;28;20539;-67
2022/08/01 02:54:58;;;;;;;8.50;6.47;;;18.20;99.90;;;;;;5089977;28;20542;-66
2022/08/01 02:57:26;;;;;;;6.43;5.83;;;18.20;99.90;;;;;;5081722;28;20539;-67
2022/08/01 02:59:57;;;;;;;5.67;5.17;;;18.20;99.90;;;;;;5077320;28;20530;-65
2022/08/01 03:02:25;;;;;;;7.80;5.83;;;18.30;99.90;;;;;;5088695;28;20593;-66
2022/08/01 03:04:54;;;;;;;6.47;5.33;;;18.20;99.90;;;;;;5083624;28;20525;-66
2022/08/01 03:07:23;;;;;;;6.43;5.83;;;18.20;99.90;;;;;;5076341;28;20546;-66
2022/08/01 03:09:52;;;;;;;6.40;5.20;;;18.20;99.90;;;;;;5093576;28;20549;-66
2022/08/01 03:12:26;;;;;;;6.03;5.43;;;18.20;99.90;;;;;;5082108;28;20563;-66
2022/08/01 03:14:57;;;;;;;6.50;4.53;;;18.20;99.90;;;;;;5084504;28;20530;-67
2022/08/01 03:17:26;;;;;;;6.57;5.73;;;18.20;99.90;;;;;;5078914;28;20542;-67
2022/08/01 03:19:56;;;;;;;5.40;4.90;;;18.30;99.90;;;;;;5094109;28;20442;-67
2022/08/01 03:22:27;;;;;;;5.47;4.90;;;18.20;99.90;;;;;;5081359;28;20557;-66
2022/08/01 03:24:57;;;;;;;4.67;4.10;;;18.30;99.90;;;;;;5090491;28;20445;-66
2022/08/01 03:27:26;;;;;;;5.03;4.53;;;18.30;99.90;;;;;;5081669;28;20531;-66
2022/08/01 03:29:56;;;;;;;4.90;3.30;;;18.30;99.90;;;;;;5089305;28;20478;-67
2022/08/01 03:32:25;;;;;;;4.00;3.70;;;18.30;99.90;;;;;;5059779;28;20836;-66
2022/08/01 03:34:53;;;;;;;5.03;4.20;;;18.30;99.90;;;;;;5093705;28;20439;-66
2022/08/01 03:37:25;;;;;;;4.37;3.97;;;18.30;99.90;;;;;;5076721;28;20563;-66
2022/08/01 03:39:58;;;;;;;3.13;2.83;;;18.30;99.90;;;;;;5073709;28;20531;-67
2022/08/01 03:42:29;;;;;;;2.33;2.13;;;18.20;99.90;;;;;;5084428;28;20549;-69
2022/08/01 03:45:03;;;;;;;3.60;2.67;;;18.20;99.90;;;;;;5092440;28;20858;-68
2022/08/01 03:47:33;;;;;;;2.40;2.20;;;18.20;99.90;;;;;;5089751;28;20794;-69
2022/08/01 03:50:03;;;;;;;2.70;1.70;;;18.10;99.90;;;;;;5089157;28;20808;-68
2022/08/01 03:52:34;;;;;;;2.23;1.90;;;18.10;99.90;;;;;;5091744;28;20973;-67
2022/08/01 03:55:08;;;;;;;5.33;1.93;;;18.00;99.90;;;;;;5075331;28;20439;-68
2022/08/01 03:57:36;;;;;;;3.33;2.00;;;17.90;99.90;;;;;;5086828;28;20431;-69
2022/08/01 04:00:07;;;;;;;2.30;2.10;;;17.90;99.90;;;;;;5092737;28;20545;-68
2022/08/01 04:02:35;;;;;;;2.80;2.50;;;17.90;99.90;;;;;;5086329;28;20503;-69
2022/08/01 04:05:04;;;;;;;2.97;2.77;;;17.90;99.90;;;;;;5084728;28;20540;-68
2022/08/01 04:10:04;;;;;;;3.10;2.90;;;17.80;99.90;;;;;;5090640;27;20607;-67
2022/08/01 04:12:32;;;;;;;4.47;3.90;;;17.80;99.90;;;;;;5085161;28;20469;-67
2022/08/01 04:14:59;;;;;;;3.73;3.43;;;17.80;99.90;;;;;;5070478;28;20939;-65
2022/08/01 04:17:26;;;;;;;4.33;3.93;;;17.80;99.90;;;;;;5073794;28;20466;-66
2022/08/01 04:19:54;;;;;;;4.90;4.40;;;17.80;99.90;;;;;;5079249;28;20538;-66
2022/08/01 04:22:21;;;;;;;4.60;4.03;;;17.80;99.90;;;;;;5080848;28;20503;-67
2022/08/01 04:24:53;;;;;;;5.03;4.53;;;17.80;99.90;;;;;;5076192;28;20530;-67
2022/08/01 04:27:24;;;;;;;5.43;4.93;;;17.80;99.90;;;;;;5088403;28;20438;-66
2022/08/01 04:29:54;;;;;;;7.83;6.83;;;17.80;99.90;;;;;;5077189;28;20473;-67
2022/08/01 04:32:23;;;;;;;9.27;7.43;;;17.90;99.90;;;;;;5079470;28;20468;-66
2022/08/01 04:34:52;;;;;;;12.43;10.33;;;17.90;99.90;;;;;;5075782;28;20969;-66
2022/08/01 04:37:20;;;;;;;9.60;8.43;;;17.90;99.90;;;;;;5077563;28;20490;-66
2022/08/01 04:39:49;;;;;;;12.17;9.70;;;17.90;99.90;;;;;;5069923;28;20443;-66
2022/08/01 04:42:18;;;;;;;9.17;7.80;;;17.90;99.90;;;;;;5079303;28;20509;-67
2022/08/01 04:44:47;;;;;;;10.70;9.17;;;17.90;99.90;;;;;;5080924;28;20518;-66
2022/08/01 04:47:14;;;;;;;11.27;8.40;;;18.00;99.90;;;;;;5079140;28;20453;-66
2022/08/01 04:49:42;;;;;;;9.83;8.43;;;18.00;99.90;;;;;;5090103;28;20480;-66
2022/08/01 04:52:09;;;;;;;9.53;8.53;;;18.00;99.90;;;;;;5089791;28;20565;-66
2022/08/01 04:54:37;;;;;;;10.60;8.17;;;18.00;99.90;;;;;;5089661;28;20543;-66
2022/08/01 04:57:05;;;;;;;10.47;8.13;;;18.10;99.90;;;;;;5087968;28;20448;-66
2022/08/01 04:59:40;;;;;;;7.87;6.73;;;18.10;99.90;;;;;;5076989;28;20447;-66
2022/08/01 05:02:09;;;;;;;8.30;7.17;;;18.10;99.90;;;;;;5081310;28;20475;-66
2022/08/01 05:04:37;;;;;;;7.20;6.37;;;18.10;99.90;;;;;;5069690;28;20436;-68
2022/08/01 05:07:04;;;;;;;6.20;5.60;;;18.10;99.90;;;;;;5076288;28;20550;-66
2022/08/01 05:09:32;;;;;;;7.50;6.13;;;18.20;99.90;;;;;;5089417;28;20572;-66
2022/08/01 05:12:00;;;;;;;6.00;5.50;;;18.20;99.90;;;;;;5089249;28;20541;-67
2022/08/01 05:14:28;;;;;;;5.70;5.20;;;18.30;99.90;;;;;;5089191;28;20997;-66
2022/08/01 05:16:56;;;;;;;5.27;4.80;;;18.40;99.90;;;;;;5084983;28;20531;-67
2022/08/01 05:19:24;;;;;;;5.00;4.43;;;18.50;99.90;;;;;;5078336;28;20454;-67
2022/08/01 05:21:51;;;;;;;5.37;4.87;;;18.50;99.90;;;;;;5055070;28;20468;-66
2022/08/01 05:24:19;;;;;;;4.63;3.90;;;18.60;99.90;;;;;;5064565;28;20538;-67
2022/08/01 05:26:46;;;;;;;7.20;4.60;;;18.50;99.90;;;;;;5061543;28;20777;-66
2022/08/01 05:29:13;;;;;;;6.03;3.90;;;18.50;99.90;;;;;;5068530;28;20514;-66
2022/08/01 05:31:41;;;;;;;4.40;4.00;;;18.60;99.90;;;;;;5075120;28;20473;-67
2022/08/01 05:34:08;;;;;;;6.47;4.70;;;18.60;99.90;;;;;;5055562;28;20452;-66
2022/08/01 05:36:37;;;;;;;6.33;4.00;;;18.60;99.90;;;;;;5055305;28;20544;-66
2022/08/01 05:39:05;;;;;;;4.40;4.00;;;18.60;99.90;;;;;;5055122;28;20445;-66
2022/08/01 05:41:32;;;;;;;4.00;3.60;;;18.60;99.90;;;;;;5054956;28;20555;-66
2022/08/01 05:43:59;;;;;;;3.90;3.43;;;18.60;99.90;;;;;;5062243;28;20478;-66
2022/08/01 05:46:26;;;;;;;4.30;3.90;;;18.60;99.90;;;;;;5066064;28;20449;-67
2022/08/01 05:48:54;;;;;;;4.47;4.07;;;18.60;99.90;;;;;;5074096;28;20570;-67
2022/08/01 05:51:21;;;;;;;4.30;3.90;;;18.50;99.90;;;;;;5054568;28;20463;-67
2022/08/01 05:53:50;;;;;;;6.47;3.60;;;18.50;99.90;;;;;;5055097;28;20471;-66
2022/08/01 05:56:18;;;;;;;5.27;4.20;;;18.50;99.90;;;;;;5054937;28;20447;-66
2022/08/01 05:58:45;;;;;;;3.90;3.60;;;18.60;99.90;;;;;;5054765;28;20444;-65
2022/08/01 06:01:12;;;;;;;3.80;3.40;;;18.60;99.90;;;;;;5054571;28;20471;-67
2022/08/01 06:03:39;;;;;;;4.07;3.67;;;18.60;99.90;;;;;;5059133;28;20456;-68
2022/08/01 06:06:07;;;;;;;4.40;4.10;;;18.70;99.90;;;;;;5058442;28;20535;-66
2022/08/01 06:08:34;;;;;;;4.40;4.00;;;18.70;99.90;;;;;;5054413;28;20484;-66
2022/08/01 06:11:02;;;;;;;4.00;3.70;;;18.80;99.90;;;;;;5054729;28;20893;-67
2022/08/01 06:13:30;;;;;;;5.90;3.70;;;18.90;99.90;;;;;;5075034;28;20546;-66
2022/08/01 06:15:57;;;;;;;4.93;4.50;;;19.00;99.90;;;;;;5075074;28;20538;-66
2022/08/01 06:18:25;;;;;;;4.13;3.77;;;19.00;99.90;;;;;;5073235;28;20471;-66
2022/08/01 06:20:52;;;;;;;4.80;4.40;;;19.10;99.90;;;;;;5074530;28;20467;-65
2022/08/01 06:23:21;;;;;;;4.40;3.90;;;19.20;99.90;;;;;;5063263;28;20448;-65
2022/08/01 06:25:48;;;;;;;4.23;3.93;;;19.20;99.90;;;;;;5054500;28;20444;-66
2022/08/01 06:28:17;;;;;;;4.47;4.07;;;19.20;99.90;;;;;;5054282;28;20456;-65
2022/08/01 06:30:44;;;;;;;4.03;3.73;;;19.20;99.90;;;;;;5055086;28;20447;-66
2022/08/01 06:33:11;;;;;;;4.20;3.80;;;19.20;99.90;;;;;;5053505;28;20452;-64
2022/08/01 06:35:38;;;;;;;4.90;4.50;;;19.20;99.90;;;;;;5054360;28;20451;-65
2022/08/01 06:38:06;;;;;;;4.93;4.50;;;19.10;99.90;;;;;;5054349;28;20453;-68
2022/08/01 06:40:33;;;;;;;5.43;4.50;;;18.90;99.90;;;;;;5053995;28;20591;-67
2022/08/01 06:43:01;;;;;;;5.33;4.90;;;18.50;99.90;;;;;;5054184;28;20486;-69
2022/08/01 06:45:30;;;;;;;5.63;5.07;;;18.30;99.90;;;;;;5054200;28;20947;-67
2022/08/01 06:47:57;;;;;;;5.47;5.00;;;18.20;99.90;;;;;;5054076;28;20966;-67
2022/08/01 06:50:24;;;;;;;5.20;4.70;;;18.20;99.90;;;;;;5054075;28;20489;-67
2022/08/01 06:52:52;;;;;;;5.77;5.17;;;18.20;99.90;;;;;;5053626;28;20444;-67
2022/08/01 06:55:19;;;;;;;5.40;4.90;;;18.20;99.90;;;;;;5053896;28;20493;-67
2022/08/01 06:57:48;;;;;;;5.70;4.50;;;18.40;99.90;;;;;;5053596;28;20500;-67
2022/08/01 07:00:18;;;;;;;5.03;4.60;;;18.50;99.90;;;;;;5053481;28;20454;-66
2022/08/01 07:02:47;;;;;;;5.47;4.30;;;18.60;99.90;;;;;;5053487;28;20894;-66
2022/08/01 07:05:14;;;;;;;4.43;4.10;;;18.70;99.90;;;;;;5053462;28;20543;-67
2022/08/01 07:07:42;;;;;;;4.93;4.53;;;18.70;99.90;;;;;;5053748;28;20869;-66
2022/08/01 07:10:10;;;;;;;4.93;4.47;;;18.80;99.90;;;;;;5059393;28;20797;-67
2022/08/01 07:12:39;;;;;;;5.00;4.60;;;18.90;99.90;;;;;;5073565;28;20482;-67
2022/08/01 07:15:07;;;;;;;4.37;4.07;;;18.90;99.90;;;;;;5060140;28;20888;-68
2022/08/01 07:17:38;;;;;;;4.83;4.40;;;19.00;99.90;;;;;;5073214;28;20566;-68
2022/08/01 07:20:08;;;;;;;5.10;3.83;;;19.00;99.90;;;;;;5063915;28;20440;-66
2022/08/01 07:22:35;;;;;;;3.27;3.07;;;19.20;99.90;;;;;;5067811;28;21002;-69
2022/08/01 07:25:04;;;;;;;3.63;3.33;;;19.40;99.90;;;;;;5068281;28;20527;-69
2022/08/01 07:27:31;;;;;;;4.90;3.60;;;19.40;99.90;;;;;;5054536;28;21013;-65
2022/08/01 07:30:19;;;;;;;3.43;3.23;;;19.50;99.90;;;;;;5055617;28;20507;-66
2022/08/01 07:32:47;;;;;;;3.83;3.43;;;19.60;99.90;;;;;;5072819;28;20501;-65
2022/08/01 07:35:15;;;;;;;4.40;4.00;;;19.70;99.90;;;;;;5073291;28;20454;-63
2022/08/01 07:37:43;;;;;;;4.40;4.07;;;19.70;99.90;;;;;;5073225;28;20958;-66
2022/08/01 07:40:11;;;;;;;3.80;3.50;;;19.80;99.90;;;;;;5073182;28;20504;-64
2022/08/01 07:42:43;;;;;;;3.30;3.07;;;19.80;99.90;;;;;;5073249;28;20546;-66
2022/08/01 07:45:11;;;;;;;3.30;2.70;;;19.80;99.90;;;;;;5073266;28;20435;-66
2022/08/01 07:47:38;;;;;;;2.70;2.47;;;19.90;99.90;;;;;;5056245;28;20455;-65
2022/08/01 07:50:08;;;;;;;3.23;2.90;;;20.00;99.90;;;;;;5052849;28;21063;-64
2022/08/01 07:52:36;;;;;;;2.80;2.60;;;20.10;99.90;;;;;;5052796;28;20468;-64
2022/08/01 07:55:04;;;;;;;2.30;2.10;;;20.10;99.90;;;;;;5063671;28;20458;-65
2022/08/01 07:57:31;;;;;;;2.80;2.60;;;20.00;99.90;;;;;;5071420;28;20522;-65
2022/08/01 07:59:59;;;;;;;2.13;1.90;;;19.90;99.90;;;;;;5061117;28;20439;-66
2022/08/01 08:02:26;;;;;;;2.73;2.53;;;19.90;99.90;;;;;;5059924;28;20507;-66
2022/08/01 08:04:53;;;;;;;4.23;2.33;;;19.80;99.90;;;;;;5057978;28;20444;-66
2022/08/01 08:07:20;;;;;;;3.00;2.70;;;19.70;99.90;;;;;;5054764;28;21009;-66
2022/08/01 08:09:49;;;;;;;3.27;3.07;;;19.60;99.90;;;;;;5072422;28;20577;-66
2022/08/01 08:12:16;;;;;;;4.23;3.93;;;19.40;99.90;;;;;;5072864;28;21044;-67
2022/08/01 08:14:44;;;;;;;4.40;4.00;;;19.30;99.90;;;;;;5073409;28;20438;-67
2022/08/01 08:17:11;;;;;;;5.53;4.97;;;19.30;99.90;;;;;;5070171;28;20459;-67
2022/08/01 08:19:39;;;;;;;4.77;4.37;;;19.40;99.90;;;;;;5078069;28;20497;-66
2022/08/01 08:22:08;;;;;;;5.80;5.20;;;19.40;99.90;;;;;;5061588;28;20483;-67
2022/08/01 08:24:35;;;;;;;6.10;5.60;;;19.40;99.90;;;;;;5063771;28;20464;-66
2022/08/01 08:27:04;;;;;;;6.10;5.60;;;19.50;99.90;;;;;;5064253;28;20821;-65
2022/08/01 08:29:32;;;;;;;6.60;6.00;;;19.50;99.90;;;;;;5063234;28;20507;-66
2022/08/01 08:32:01;;;;;;;6.63;6.03;;;19.60;99.90;;;;;;5056981;28;20551;-67
2022/08/01 08:34:29;;;;;;;6.60;6.00;;;19.70;99.90;;;;;;5054257;28;20501;-65
2022/08/01 08:36:57;;;;;;;7.63;5.70;;;20.00;99.90;;;;;;5053607;28;20531;-67
2022/08/01 08:39:24;;;;;;;6.07;5.57;;;20.20;99.90;;;;;;5053086;28;20448;-68
2022/08/01 08:41:52;;;;;;;5.70;5.20;;;20.40;99.90;;;;;;5053045;28;20492;-65
2022/08/01 08:44:21;;;;;;;4.70;4.30;;;20.60;99.90;;;;;;5052650;28;20453;-65
2022/08/01 08:46:51;;;;;;;4.87;4.47;;;20.80;99.90;;;;;;5053060;28;20448;-63
2022/08/01 08:49:21;;;;;;;3.63;3.37;;;20.90;99.90;;;;;;5052567;28;20437;-65
2022/08/01 08:51:51;;;;;;;4.27;3.87;;;21.00;99.90;;;;;;5052620;28;20555;-66
2022/08/01 08:54:20;;;;;;;3.43;3.10;;;21.10;99.90;;;;;;5052743;28;20448;-69
2022/08/01 08:56:48;;;;;;;2.60;2.40;;;21.10;99.90;;;;;;5056131;28;20464;-68
2022/08/01 08:59:16;;;;;;;4.00;2.93;;;21.10;99.90;;;;;;5056672;28;20858;-66
2022/08/01 09:01:44;;;;;;;2.50;1.87;;;20.90;99.90;;;;;;5056128;28;20473;-69
2022/08/01 09:04:12;;;;;;;2.73;2.20;;;20.80;99.90;;;;;;5056138;28;20444;-67
2022/08/01 09:06:40;;;;;;;3.10;2.03;;;20.70;99.90;;;;;;5056293;28;20475;-64
2022/08/01 09:09:09;;;;;;;2.50;2.00;;;20.70;99.90;;;;;;5055443;28;20456;-66
2022/08/01 09:11:37;;;;;;;2.43;2.10;;;20.70;99.90;;;;;;5055324;28;20504;-65
2022/08/01 09:14:06;;;;;;;2.70;2.50;;;20.80;99.90;;;;;;5056162;28;20956;-63
2022/08/01 09:16:35;;;;;;;3.03;2.33;;;20.70;99.90;;;;;;5055696;28;20449;-65
2022/08/01 09:19:12;;;;;;;2.60;2.40;;;20.70;99.90;;;;;;5057438;28;20942;-64
2022/08/01 09:21:40;;;;;;;2.80;2.47;;;20.80;99.90;;;;;;5056236;28;20460;-65
2022/08/01 09:24:16;;;;;;;3.30;3.00;;;21.00;99.90;;;;;;5055617;28;20998;-64
2022/08/01 09:26:44;;;;;;;3.37;3.07;;;21.10;99.90;;;;;;5055504;28;20437;-66
2022/08/01 09:29:23;;;;;;;5.33;3.00;;;21.20;99.90;;;;;;5055665;28;20471;-63
2022/08/01 09:31:51;;;;;;;3.60;2.90;;;21.20;99.90;;;;;;5056149;28;20460;-66
2022/08/01 09:34:27;;;;;;;2.50;2.30;;;21.30;99.90;;;;;;5055736;28;20453;-65
2022/08/01 09:36:56;;;;;;;2.60;2.27;;;21.40;99.90;;;;;;5055773;28;20454;-66
2022/08/01 09:39:25;;;;;;;4.97;2.53;;;21.60;99.90;;;;;;5055910;28;20450;-66
2022/08/01 09:41:53;;;;;;;3.13;2.63;;;21.60;99.90;;;;;;5059542;28;20478;-65
2022/08/01 09:44:38;;;;;;;3.70;3.07;;;21.50;99.60;;;;;;5057174;28;20454;-67
2022/08/01 09:47:06;;;;;;;3.80;3.10;;;21.30;99.70;;;;;;5055478;28;20866;-65
2022/08/01 09:49:36;;;;;;;3.50;3.20;;;21.10;99.90;;;;;;5055459;28;20535;-64
2022/08/01 09:52:13;;;;;;;5.00;3.70;;;21.00;99.90;;;;;;5055080;28;20848;-64
2022/08/01 09:54:40;;;;;;;3.50;3.20;;;21.00;99.90;;;;;;5055285;28;20600;-64
2022/08/01 09:57:13;;;;;;;5.07;3.60;;;21.00;99.90;;;;;;5054734;28;20526;-65
2022/08/01 09:59:43;;;;;;;4.60;3.20;;;21.10;99.90;;;;;;5055658;28;20442;-64
2022/08/01 10:02:13;;;;;;;4.17;2.90;;;21.20;99.20;;;;;;5054905;28;20994;-66
2022/08/01 10:04:49;;;;;;;5.73;3.63;;;21.30;98.70;;;;;;5055029;28;20794;-66
2022/08/01 10:07:17;;;;;;;3.17;2.87;;;21.40;98.00;;;;;;5055067;28;20513;-67
2022/08/01 10:09:45;;;;;;;3.60;3.30;;;21.50;97.40;;;;;;5054365;28;20511;-65
2022/08/01 10:12:14;;;;;;;4.10;3.40;;;21.50;96.90;;;;;;5054449;28;20810;-64
2022/08/01 10:14:42;;;;;;;3.73;3.43;;;21.30;97.20;;;;;;5055194;28;20530;-63
2022/08/01 10:17:16;;;;;;;4.40;4.00;;;21.30;97.50;;;;;;5055140;28;20449;-63
2022/08/01 10:19:45;;;;;;;4.00;3.60;;;21.20;97.60;;;;;;5054696;28;20873;-65
2022/08/01 10:22:16;;;;;;;4.20;2.40;;;21.20;97.60;;;;;;5076802;22;20580;-58
2022/08/01 10:24:45;;;;;;;3.80;3.33;;;21.10;97.60;;;;;;5036155;28;20995;-56
2022/08/01 10:27:15;;;;;;;4.60;3.10;;;20.90;97.60;;;;;;5035490;28;20461;-57
2022/08/01 10:29:47;;;;;;;3.93;3.50;;;21.00;98.10;;;;;;5034212;28;20465;-59
2022/08/01 10:32:14;;;;;;;5.33;4.70;;;21.00;97.80;;;;;;5034230;28;20470;-59
2022/08/01 10:34:42;;;;;;;4.70;4.30;;;21.00;98.10;;;;;;5034798;28;20527;-59
2022/08/01 10:37:10;;;;;;;5.40;4.47;;;21.00;98.40;;;;;;5034410;28;20802;-60
2022/08/01 10:39:40;;;;;;;5.60;3.77;;;21.00;98.80;;;;;;5034844;28;20546;-60
2022/08/01 10:42:11;;;;;;;4.00;3.60;;;20.90;98.80;;;;;;5035359;28;21030;-59
2022/08/01 10:44:39;;;;;;;4.20;3.70;;;20.90;98.20;;;;;;5034205;28;20902;-59
2022/08/01 10:47:11;;;;;;;4.10;3.40;;;20.90;98.30;;;;;;5033790;28;20454;-59
2022/08/01 10:49:49;;;;;;;3.97;3.40;;;21.10;98.20;;;;;;5034324;28;20441;-61
2022/08/01 10:52:16;;;;;;;3.73;2.37;;;21.50;97.40;;;;;;5034204;28;20484;-60
2022/08/01 10:54:45;;;;;;;3.93;2.67;;;21.80;95.50;;;;;;5033520;28;20529;-59
2022/08/01 10:57:13;;;;;;;2.83;2.10;;;22.10;93.70;;;;;;5033516;28;20458;-60
2022/08/01 10:59:50;;;;;;;4.20;2.17;;;22.20;91.90;;;;;;5033275;28;20452;-57
2022/08/01 11:02:29;;;;;;;3.23;2.10;;;22.30;91.40;;;;;;5034360;28;20476;-59
2022/08/01 11:04:59;;;;;;;4.47;2.23;;;22.30;90.50;;;;;;5033625;28;20456;-59
2022/08/01 11:07:43;;;;;;;3.70;2.17;;;22.20;90.30;;;;;;5033109;28;20958;-59
2022/08/01 11:10:21;;;;;;;3.97;2.23;;;22.10;90.90;;;;;;5033398;28;20475;-59
2022/08/01 11:12:49;;;;;;;3.03;2.20;;;21.90;91.30;;;;;;5033374;28;20551;-57
2022/08/01 11:15:27;;;;;;;2.70;2.10;;;21.80;92.00;;;;;;5033560;28;20472;-58
2022/08/01 11:17:55;;;;;;;4.20;2.30;;;21.80;92.30;;;;;;5032574;28;20432;-58
2022/08/01 11:20:24;;;;;;;4.53;2.30;;;22.00;92.30;;;;;;5033010;28;20472;-58
2022/08/01 11:23:27;;;;;;;4.10;2.33;;;22.30;91.90;;;;;;5033262;28;20485;-57
2022/08/01 11:26:26;;;;;;;3.03;2.07;;;22.50;90.60;;;;;;5033730;28;20439;-59
2022/08/01 11:29:17;;;;;;;2.80;2.00;;;22.40;88.90;;;;;;5033589;28;20436;-58
2022/08/01 11:31:44;;;;;;;5.33;2.60;;;22.40;88.00;;;;;;5033127;28;20494;-58
2022/08/01 11:34:12;;;;;;;3.97;2.30;;;22.40;87.50;;;;;;5034040;28;20448;-57
2022/08/01 11:36:39;;;;;;;4.03;2.73;;;22.50;86.50;;;;;;5034359;28;20481;-58
2022/08/01 11:39:17;;;;;;;3.77;2.50;;;22.70;85.60;;;;;;5033190;28;20548;-59
2022/08/01 11:41:47;;;;;;;2.50;1.93;;;23.00;84.00;;;;;;5033980;28;20460;-59
2022/08/01 11:44:22;;;;;;;3.73;2.30;;;23.40;82.00;;;;;;5033111;28;20488;-58
2022/08/01 11:47:07;;;;;;;3.40;2.10;;;23.80;78.30;;;;;;5033660;28;20456;-59
2022/08/01 11:49:45;;;;;;;4.83;2.63;;;23.80;75.30;;;;;;5032875;28;20427;-58
2022/08/01 11:52:14;;;;;;;7.13;3.43;;;23.60;76.00;;;;;;5033204;28;20493;-58
2022/08/01 11:54:44;;;;;;;5.20;3.00;;;23.30;76.80;;;;;;5034829;28;20448;-58
2022/08/01 11:57:14;;;;;;;3.00;2.60;;;23.10;76.90;;;;;;5033658;28;20445;-58
2022/08/01 11:59:45;;;;;;;10.63;3.80;;;22.90;77.40;;;;;;5033512;28;20502;-58
2022/08/01 12:02:26;;;;;;;3.40;2.53;;;22.90;77.30;;;;;;5032014;28;20554;-58
2022/08/01 12:04:56;;;;;;;2.90;2.13;;;23.00;77.00;;;;;;5032682;28;20483;-58
2022/08/01 12:07:24;;;;;;;4.90;2.50;;;23.30;75.40;;;;;;5032329;28;20540;-60
2022/08/01 12:10:00;;;;;;;9.43;2.53;;;23.80;73.20;;;;;;5032009;28;20977;-58
2022/08/01 12:12:29;;;;;;;4.63;2.80;;;24.20;70.50;;;;;;5047435;28;20491;-58
2022/08/01 12:14:58;;;;;;;6.13;2.90;;;24.20;69.50;;;;;;5050847;28;20488;-58
2022/08/01 12:17:36;;;;;;;3.27;2.77;;;24.00;69.00;;;;;;5032526;28;20547;-58
2022/08/01 12:20:06;;;;;;;2.80;2.03;;;23.70;69.00;;;;;;5032708;28;20473;-58
2022/08/01 12:22:34;;;;;;;4.63;2.73;;;23.70;68.90;;;;;;5032825;28;20489;-57
2022/08/01 12:25:07;;;;;;;4.73;2.63;;;23.90;67.80;;;;;;5033031;28;20467;-58
2022/08/01 12:27:36;;;;;;;4.33;3.17;;;24.10;66.20;;;;;;5032310;28;20441;-57
2022/08/01 12:30:07;;;;;;;3.80;2.63;;;24.20;65.50;;;;;;5033081;28;20484;-58
2022/08/01 12:32:36;;;;;;;4.43;2.93;;;24.20;64.90;;;;;;5036889;28;20516;-58
2022/08/01 12:35:05;;;;;;;4.50;2.73;;;24.00;65.80;;;;;;5036467;28;20544;-58
2022/08/01 12:37:35;;;;;;;4.40;2.40;;;23.70;66.80;;;;;;5036575;28;20520;-58
2022/08/01 12:40:09;;;;;;;2.80;2.37;;;23.60;67.30;;;;;;5036787;28;20866;-58
2022/08/01 12:42:40;;;;;;;4.03;2.90;;;23.90;67.10;;;;;;5036042;28;20470;-58
2022/08/01 12:45:10;;;;;;;3.80;2.77;;;24.30;65.50;;;;;;5036371;28;20431;-58
2022/08/01 12:47:38;;;;;;;5.83;3.27;;;24.50;64.10;;;;;;5037365;28;20457;-58
2022/08/01 12:50:07;;;;;;;4.20;2.80;;;24.50;63.80;;;;;;5036736;28;20446;-58
2022/08/01 12:52:35;;;;;;;3.47;2.67;;;24.60;63.70;;;;;;5036843;28;20566;-59
2022/08/01 12:55:08;;;;;;;6.27;2.87;;;24.70;63.50;;;;;;5036487;28;20451;-58
2022/08/01 12:57:35;;;;;;;5.20;2.80;;;24.90;63.40;;;;;;5035802;28;20593;-58
2022/08/01 13:00:13;;;;;;;5.23;2.73;;;24.90;62.00;;;;;;5036262;28;20504;-58
2022/08/01 13:02:41;;;;;;;5.50;2.93;;;24.80;62.20;;;;;;5036596;28;20512;-57